createdAt,value
2022-11-16T00:00:43.499Z,10.18
2022-11-16T00:03:14.744Z,9.00
2022-11-16T00:05:45.382Z,9.02
2022-11-16T00:08:15.682Z,8.52
2022-11-16T00:10:46.530Z,11.68
2022-11-16T00:13:17.225Z,14.50
2022-11-16T00:15:57.581Z,17.85
2022-11-16T00:18:28.426Z,18.95
2022-11-16T00:20:59.412Z,18.92
2022-11-16T00:23:31.675Z,20.83
2022-11-16T00:26:08.612Z,20.80
2022-11-16T00:28:40.195Z,19.80
2022-11-16T00:31:11.931Z,16.17
2022-11-16T00:33:43.071Z,15.25
2022-11-16T00:36:15.506Z,13.93
2022-11-16T00:38:47.073Z,12.18
2022-11-16T00:41:20.669Z,13.88
2022-11-16T00:43:52.580Z,8.05
2022-11-16T00:46:24.065Z,9.38
2022-11-16T00:48:55.562Z,8.77
2022-11-16T00:51:26.511Z,7.97
2022-11-16T00:53:57.620Z,8.23
2022-11-16T00:56:29.642Z,7.05
2022-11-16T00:59:01.156Z,6.82
2022-11-16T01:01:35.024Z,7.00
2022-11-16T01:04:09.718Z,8.32
2022-11-16T01:06:41.151Z,8.80
2022-11-16T01:09:12.262Z,31.95
2022-11-16T01:12:01.292Z,9.07
2022-11-16T01:14:33.381Z,8.82
2022-11-16T01:17:05.888Z,8.77
2022-11-16T01:19:38.005Z,8.07
2022-11-16T01:22:12.038Z,9.13
2022-11-16T01:24:42.781Z,8.07
2022-11-16T01:27:15.012Z,7.47
2022-11-16T01:29:48.684Z,6.28
2022-11-16T01:32:21.455Z,5.97
2022-11-16T01:34:53.030Z,5.20
2022-11-16T01:37:31.655Z,5.85
2022-11-16T01:40:02.513Z,5.15
2022-11-16T01:42:34.764Z,5.63
2022-11-16T01:45:25.910Z,5.50
2022-11-16T01:48:00.307Z,5.05
2022-11-16T01:50:35.204Z,5.38
2022-11-16T01:53:07.651Z,5.18
2022-11-16T01:55:51.721Z,5.95
2022-11-16T01:58:31.634Z,7.00
2022-11-16T02:01:12.610Z,8.15
2022-11-16T02:03:50.012Z,10.05
2022-11-16T02:06:29.460Z,9.45
2022-11-16T02:09:59.105Z,10.57
2022-11-16T02:13:00.006Z,9.50
2022-11-16T02:15:46.668Z,7.75
2022-11-16T02:18:37.081Z,6.50
2022-11-16T02:21:14.288Z,6.40
2022-11-16T02:24:03.812Z,5.40
2022-11-16T02:26:52.635Z,5.60
2022-11-16T02:29:41.535Z,5.10
2022-11-16T02:32:15.235Z,4.43
2022-11-16T02:35:24.807Z,5.20
2022-11-16T02:38:09.849Z,9.88
2022-11-16T02:40:42.539Z,5.55
2022-11-16T02:43:18.753Z,5.40
2022-11-16T02:45:52.560Z,4.43
2022-11-16T02:48:26.997Z,4.40
2022-11-16T02:51:00.744Z,5.75
2022-11-16T02:53:35.824Z,4.50
2022-11-16T02:56:07.786Z,5.60
2022-11-16T02:58:38.463Z,4.18
2022-11-16T03:01:20.045Z,4.28
2022-11-16T03:03:52.360Z,5.10
2022-11-16T03:06:30.505Z,5.47
2022-11-16T03:09:25.012Z,5.28
2022-11-16T03:12:02.134Z,21.13
2022-11-16T03:14:54.061Z,5.20
2022-11-16T03:17:46.678Z,5.50
2022-11-16T03:20:23.805Z,4.53
2022-11-16T03:23:00.517Z,4.15
2022-11-16T03:25:56.386Z,4.38
2022-11-16T03:29:00.630Z,4.57
2022-11-16T03:31:45.424Z,5.13
2022-11-16T03:34:21.314Z,5.55
2022-11-16T03:36:53.122Z,5.07
2022-11-16T03:39:32.473Z,5.72
2022-11-16T03:42:08.072Z,4.60
2022-11-16T03:44:40.089Z,5.20
2022-11-16T03:47:14.191Z,5.00
2022-11-16T03:49:48.685Z,5.32
2022-11-16T03:52:21.656Z,5.40
2022-11-16T03:54:54.029Z,5.57
2022-11-16T03:57:25.528Z,4.45
2022-11-16T03:59:59.905Z,4.15
2022-11-16T04:02:33.816Z,4.60
2022-11-16T04:05:23.063Z,3.80
2022-11-16T04:08:17.462Z,4.75
2022-11-16T04:11:07.034Z,4.47
2022-11-16T04:13:55.898Z,7.57
2022-11-16T04:16:44.763Z,5.18
2022-11-16T04:19:33.620Z,2.78
2022-11-16T04:22:44.596Z,4.28
2022-11-16T04:25:23.331Z,3.25
2022-11-16T04:28:13.600Z,2.92
2022-11-16T04:31:12.537Z,2.30
2022-11-16T04:34:05.235Z,2.58
2022-11-16T04:36:54.026Z,5.72
2022-11-16T04:39:24.836Z,2.40
2022-11-16T04:42:14.411Z,4.18
2022-11-16T04:45:25.658Z,3.40
2022-11-16T04:47:57.113Z,2.88
2022-11-16T04:50:32.985Z,3.40
2022-11-16T04:53:04.869Z,2.75
2022-11-16T04:55:41.013Z,3.47
2022-11-16T04:58:11.581Z,3.75
2022-11-16T05:00:43.290Z,2.50
2022-11-16T05:03:14.715Z,3.63
2022-11-16T05:05:47.413Z,2.90
2022-11-16T05:08:19.694Z,2.30
2022-11-16T05:10:53.501Z,3.00
2022-11-16T05:13:25.056Z,2.35
2022-11-16T05:15:56.926Z,2.50
2022-11-16T05:18:32.181Z,2.40
2022-11-16T05:21:05.551Z,1.90
2022-11-16T05:23:58.994Z,2.47
2022-11-16T05:26:33.189Z,2.85
2022-11-16T05:29:05.372Z,12.10
2022-11-16T05:31:40.278Z,4.03
2022-11-16T05:34:12.175Z,3.20
2022-11-16T05:36:42.994Z,2.67
2022-11-16T05:39:14.688Z,3.25
2022-11-16T05:41:46.495Z,2.80
2022-11-16T05:44:18.181Z,5.20
2022-11-16T05:46:49.531Z,4.80
2022-11-16T05:49:22.595Z,7.25
2022-11-16T05:51:53.324Z,2.88
2022-11-16T05:54:27.234Z,2.88
2022-11-16T05:56:58.725Z,3.40
2022-11-16T05:59:30.964Z,2.67
2022-11-16T06:02:05.741Z,2.22
2022-11-16T06:04:37.915Z,2.97
2022-11-16T06:07:08.212Z,3.70
2022-11-16T06:09:39.708Z,3.10
2022-11-16T06:12:18.708Z,3.00
2022-11-16T06:14:49.854Z,2.45
2022-11-16T06:17:20.552Z,11.77
2022-11-16T06:19:51.357Z,3.55
2022-11-16T06:22:22.322Z,3.42
2022-11-16T06:24:53.589Z,3.10
2022-11-16T06:27:27.506Z,2.55
2022-11-16T06:29:58.550Z,2.33
2022-11-16T06:32:32.935Z,2.83
2022-11-16T06:35:03.822Z,2.70
2022-11-16T06:37:34.977Z,2.58
2022-11-16T06:40:07.455Z,2.70
2022-11-16T06:42:43.069Z,2.38
2022-11-16T06:45:17.163Z,3.10
2022-11-16T06:47:55.148Z,2.63
2022-11-16T06:50:27.288Z,3.63
2022-11-16T06:53:01.794Z,4.88
2022-11-16T06:55:34.276Z,3.45
2022-11-16T06:58:07.360Z,4.00
2022-11-16T07:00:39.640Z,4.28
2022-11-16T07:03:12.469Z,4.82
2022-11-16T07:05:43.881Z,4.35
2022-11-16T07:08:19.213Z,5.78
2022-11-16T07:10:51.460Z,3.83
2022-11-16T07:13:22.648Z,5.30
2022-11-16T07:15:54.714Z,7.88
2022-11-16T07:18:26.069Z,3.88
2022-11-16T07:20:57.876Z,3.10
2022-11-16T07:23:29.828Z,3.13
2022-11-16T07:26:06.649Z,3.47
2022-11-16T07:28:49.252Z,4.15
2022-11-16T07:31:24.612Z,4.65
2022-11-16T07:34:15.175Z,3.95
2022-11-16T07:37:08.153Z,4.07
2022-11-16T07:39:38.993Z,4.35
2022-11-16T07:42:13.197Z,4.82
2022-11-16T07:45:01.636Z,5.70
2022-11-16T07:47:39.101Z,6.28
2022-11-16T07:50:13.456Z,4.75
2022-11-16T07:52:47.551Z,3.70
2022-11-16T07:55:27.401Z,4.00
2022-11-16T07:57:59.633Z,4.45
2022-11-16T08:00:30.303Z,7.00
2022-11-16T08:03:10.263Z,4.95
2022-11-16T08:05:41.940Z,4.82
2022-11-16T08:08:13.832Z,4.85
2022-11-16T08:10:46.899Z,4.13
2022-11-16T08:13:18.187Z,4.03
2022-11-16T08:15:48.919Z,5.00
2022-11-16T08:18:23.112Z,4.20
2022-11-16T08:20:53.544Z,4.97
2022-11-16T08:23:25.519Z,4.78
2022-11-16T08:26:04.479Z,4.25
2022-11-16T08:28:35.877Z,3.47
2022-11-16T08:31:14.948Z,3.70
2022-11-16T08:33:50.016Z,3.88
2022-11-16T08:36:21.458Z,3.60
2022-11-16T08:38:53.527Z,4.25
2022-11-16T08:41:26.400Z,4.60
2022-11-16T08:43:58.011Z,5.40
2022-11-16T08:46:29.562Z,6.60
2022-11-16T08:49:10.199Z,5.22
2022-11-16T08:51:41.819Z,6.05
2022-11-16T08:54:12.653Z,7.43
2022-11-16T08:56:45.172Z,7.13
2022-11-16T08:59:16.658Z,8.15
2022-11-16T09:01:51.660Z,8.13
2022-11-16T09:04:22.662Z,8.02
2022-11-16T09:06:54.098Z,6.97
2022-11-16T09:09:24.787Z,7.80
2022-11-16T09:11:58.743Z,7.80
2022-11-16T09:14:31.592Z,8.00
2022-11-16T09:17:02.131Z,7.68
2022-11-16T09:19:32.414Z,7.43
2022-11-16T09:22:03.363Z,7.53
2022-11-16T09:24:34.062Z,10.25
2022-11-16T09:27:04.848Z,7.32
2022-11-16T09:29:35.750Z,10.52
2022-11-16T09:32:07.367Z,8.05
2022-11-16T09:34:38.219Z,8.25
2022-11-16T09:37:09.164Z,7.18
2022-11-16T09:39:39.695Z,8.25
2022-11-16T09:42:43.601Z,9.63
2022-11-16T09:45:19.101Z,9.48
2022-11-16T09:47:58.434Z,12.20
2022-11-16T09:50:37.922Z,10.60
2022-11-16T09:53:32.429Z,12.20
2022-11-16T09:56:26.412Z,12.75
2022-11-16T09:59:06.165Z,12.90
2022-11-16T10:02:03.023Z,12.02
2022-11-16T10:04:44.969Z,12.18
2022-11-16T10:07:27.799Z,12.07
2022-11-16T10:09:58.893Z,13.63
2022-11-16T10:12:37.017Z,13.88
2022-11-16T10:15:10.709Z,14.95
2022-11-16T10:17:47.091Z,13.70
2022-11-16T10:20:50.751Z,32.75
2022-11-16T10:23:37.887Z,13.68
2022-11-16T10:26:20.467Z,14.85
2022-11-16T10:29:02.817Z,18.05
2022-11-16T10:31:39.419Z,18.48
2022-11-16T10:34:10.966Z,15.88
2022-11-16T10:36:41.287Z,13.63
2022-11-16T10:39:17.950Z,11.80
2022-11-16T10:41:54.142Z,15.63
2022-11-16T10:44:42.956Z,15.88
2022-11-16T10:47:27.115Z,10.93
2022-11-16T10:50:08.192Z,12.40
2022-11-16T10:52:38.749Z,11.05
2022-11-16T10:55:09.883Z,10.57
2022-11-16T10:58:16.055Z,41.00
2022-11-16T11:00:52.570Z,15.55
2022-11-16T11:03:33.729Z,11.82
2022-11-16T11:06:04.307Z,9.75
2022-11-16T11:08:35.050Z,12.32
2022-11-16T11:11:25.505Z,15.57
2022-11-16T11:14:11.614Z,10.77
2022-11-16T11:16:42.740Z,9.90
2022-11-16T11:19:39.277Z,16.13
2022-11-16T11:22:15.724Z,11.32
2022-11-16T11:24:50.303Z,10.52
2022-11-16T11:27:26.354Z,16.85
2022-11-16T11:29:59.651Z,19.38
2022-11-16T11:32:36.735Z,9.73
2022-11-16T11:35:08.116Z,16.88
2022-11-16T11:37:40.705Z,9.77
2022-11-16T11:40:11.469Z,11.68
2022-11-16T11:42:43.950Z,10.40
2022-11-16T11:45:14.846Z,10.80
2022-11-16T11:47:58.434Z,10.68
2022-11-16T11:50:41.099Z,10.52
2022-11-16T11:53:44.746Z,11.40
2022-11-16T11:56:15.872Z,11.00
2022-11-16T11:58:47.732Z,10.73
2022-11-16T12:01:42.691Z,11.93
2022-11-16T12:04:31.759Z,12.52
2022-11-16T12:07:10.996Z,11.57
2022-11-16T12:09:51.089Z,13.00
2022-11-16T12:12:47.751Z,14.13
2022-11-16T12:15:43.150Z,15.25
2022-11-16T12:18:32.010Z,17.80
2022-11-16T12:21:31.539Z,13.75
2022-11-16T12:24:40.087Z,10.50
2022-11-16T12:27:37.120Z,11.77
2022-11-16T12:30:20.927Z,14.82
2022-11-16T12:33:33.246Z,13.48
2022-11-16T12:36:16.094Z,10.05
2022-11-16T12:39:04.489Z,9.52
2022-11-16T12:41:52.096Z,9.20
2022-11-16T12:44:47.055Z,8.93
2022-11-16T12:47:35.539Z,8.60
2022-11-16T12:50:42.258Z,10.45
2022-11-16T12:53:24.744Z,9.65
2022-11-16T12:56:25.545Z,11.68
2022-11-16T12:59:18.764Z,9.48
2022-11-16T13:01:48.944Z,8.68
2022-11-16T13:04:23.396Z,8.32
2022-11-16T13:06:58.902Z,8.55
2022-11-16T13:09:33.697Z,13.25
2022-11-16T13:12:07.775Z,10.68
2022-11-16T13:14:49.866Z,9.27
2022-11-16T13:17:35.784Z,10.93
2022-11-16T13:20:34.786Z,13.55
2022-11-16T13:23:48.109Z,13.88
2022-11-16T13:26:26.219Z,12.48
2022-11-16T13:29:16.095Z,16.75
2022-11-16T13:31:58.923Z,11.40
2022-11-16T13:34:34.092Z,10.90
2022-11-16T13:37:40.661Z,11.18
2022-11-16T13:40:25.249Z,11.93
2022-11-16T13:43:14.367Z,10.90
2022-11-16T13:45:51.286Z,10.45
2022-11-16T13:48:22.882Z,9.60
2022-11-16T13:50:58.563Z,11.20
2022-11-16T13:54:38.046Z,10.23
2022-11-16T13:56:29.011Z,9.95
2022-11-16T13:59:00.096Z,12.30
2022-11-16T14:02:22.716Z,10.30
2022-11-16T14:05:20.741Z,11.70
2022-11-16T14:07:56.059Z,10.57
2022-11-16T14:10:52.459Z,9.75
2022-11-16T14:13:48.240Z,9.25
2022-11-16T14:16:22.424Z,6.97
2022-11-16T14:18:58.084Z,7.88
2022-11-16T14:21:50.370Z,6.78
2022-11-16T14:24:35.094Z,7.25
2022-11-16T14:27:17.038Z,6.18
2022-11-16T14:29:57.258Z,6.40
2022-11-16T14:32:42.453Z,5.72
2022-11-16T14:35:40.528Z,6.05
2022-11-16T14:38:31.546Z,5.13
2022-11-16T14:41:04.981Z,6.10
2022-11-16T14:43:48.964Z,4.97
2022-11-16T14:46:24.940Z,5.13
2022-11-16T14:49:00.889Z,5.53
2022-11-16T14:51:34.500Z,5.13
2022-11-16T14:54:12.831Z,6.03
2022-11-16T14:57:04.021Z,6.03
2022-11-16T14:59:34.890Z,7.43
2022-11-16T15:02:28.649Z,7.65
2022-11-16T15:04:59.239Z,7.70
2022-11-16T15:07:31.048Z,8.00
2022-11-16T15:10:02.410Z,8.85
2022-11-16T15:12:44.090Z,8.35
2022-11-16T15:15:17.931Z,8.77
2022-11-16T15:18:08.461Z,8.50
2022-11-16T15:20:45.640Z,9.38
2022-11-16T15:23:17.258Z,10.40
2022-11-16T15:25:56.965Z,9.52
2022-11-16T15:28:30.251Z,11.50
2022-11-16T15:31:02.901Z,11.70
2022-11-16T15:33:43.279Z,11.85
2022-11-16T15:36:50.072Z,9.07
2022-11-16T15:39:26.413Z,7.75
2022-11-16T15:42:03.273Z,8.05
2022-11-16T15:44:34.813Z,7.47
2022-11-16T15:47:06.021Z,7.93
2022-11-16T15:49:40.367Z,6.97
2022-11-16T15:52:12.143Z,7.30
2022-11-16T15:55:01.632Z,7.50
2022-11-16T15:57:32.790Z,6.72
2022-11-16T16:00:04.408Z,7.00
2022-11-16T16:02:35.183Z,8.18
2022-11-16T16:05:07.048Z,9.38
2022-11-16T16:07:40.635Z,8.60
2022-11-16T16:10:20.536Z,8.05
2022-11-16T16:13:03.676Z,7.65
2022-11-16T16:15:37.494Z,7.22
2022-11-16T16:18:37.145Z,6.40
2022-11-16T16:21:07.850Z,6.28
2022-11-16T16:23:54.670Z,6.72
2022-11-16T16:26:25.560Z,6.07
2022-11-16T16:28:56.918Z,7.20
2022-11-16T16:31:30.776Z,7.18
2022-11-16T16:34:12.481Z,8.05
2022-11-16T16:36:44.661Z,7.60
2022-11-16T16:39:15.491Z,7.47
2022-11-16T16:41:45.977Z,6.80
2022-11-16T16:44:17.373Z,6.97
2022-11-16T16:46:48.063Z,7.00
2022-11-16T16:49:18.672Z,6.82
2022-11-16T16:51:48.897Z,7.07
2022-11-16T16:54:19.292Z,6.70
2022-11-16T16:56:49.693Z,6.97
2022-11-16T16:59:20.805Z,7.20
2022-11-16T17:01:52.682Z,6.57
2022-11-16T17:04:22.937Z,6.57
2022-11-16T17:06:54.573Z,7.03
2022-11-16T17:09:26.281Z,6.55
2022-11-16T17:11:56.955Z,7.38
2022-11-16T17:14:27.541Z,6.97
2022-11-16T17:16:59.650Z,7.18
2022-11-16T17:19:30.891Z,6.70
2022-11-16T17:22:01.955Z,6.85
2022-11-16T17:24:32.430Z,6.13
2022-11-16T17:27:03.079Z,7.15
2022-11-16T17:29:34.817Z,6.25
2022-11-16T17:32:09.607Z,6.32
2022-11-16T17:34:48.805Z,6.20
2022-11-16T17:37:28.591Z,6.60
2022-11-16T17:40:00.815Z,7.28
2022-11-16T17:42:39.175Z,7.07
2022-11-16T17:45:39.956Z,7.90
2022-11-16T17:48:38.201Z,8.48
2022-11-16T17:51:14.958Z,7.55
2022-11-16T17:54:01.493Z,7.30
2022-11-16T17:56:47.706Z,7.45
2022-11-16T17:59:31.451Z,8.00
2022-11-16T18:02:04.153Z,7.53
2022-11-16T18:04:48.233Z,7.40
2022-11-16T18:07:29.354Z,7.57
2022-11-16T18:10:15.003Z,6.72
2022-11-16T18:13:10.422Z,6.97
2022-11-16T18:15:48.578Z,8.93
2022-11-16T18:18:25.390Z,8.48
2022-11-16T18:20:56.942Z,8.25
2022-11-16T18:23:28.940Z,10.27
2022-11-16T18:26:05.861Z,7.50
2022-11-16T18:28:37.150Z,6.78
2022-11-16T18:31:09.821Z,6.03
2022-11-16T18:33:40.142Z,5.70
2022-11-16T18:36:11.488Z,6.00
2022-11-16T18:38:41.893Z,6.05
2022-11-16T18:41:15.260Z,7.63
2022-11-16T18:44:03.006Z,7.97
2022-11-16T18:46:34.815Z,8.02
2022-11-16T18:49:05.633Z,8.18
2022-11-16T18:51:36.515Z,7.30
2022-11-16T18:54:06.868Z,7.20
2022-11-16T18:56:37.296Z,7.30
2022-11-16T18:59:07.710Z,8.20
2022-11-16T19:01:38.205Z,7.57
2022-11-16T19:04:09.801Z,8.02
2022-11-16T19:06:41.145Z,7.72
2022-11-16T19:09:12.295Z,7.95
2022-11-16T19:11:42.917Z,7.03
2022-11-16T19:14:15.619Z,6.00
2022-11-16T19:16:54.169Z,5.38
2022-11-16T19:19:28.669Z,5.57
2022-11-16T19:21:59.297Z,5.63
2022-11-16T19:24:30.052Z,5.60
2022-11-16T19:27:00.591Z,5.72
2022-11-16T19:29:31.372Z,5.80
2022-11-16T19:32:02.144Z,5.95
2022-11-16T19:34:34.254Z,6.32
2022-11-16T19:37:07.515Z,6.57
2022-11-16T19:39:38.085Z,7.22
2022-11-16T19:42:08.635Z,8.45
2022-11-16T19:44:39.382Z,7.65
2022-11-16T19:47:09.609Z,6.90
2022-11-16T19:49:40.127Z,7.53
2022-11-16T19:52:11.351Z,7.75
2022-11-16T19:54:42.195Z,7.22
2022-11-16T19:57:13.829Z,6.55
2022-11-16T19:59:44.701Z,6.50
2022-11-16T20:02:15.472Z,6.68
2022-11-16T20:04:46.235Z,6.43
2022-11-16T20:07:19.047Z,7.55
2022-11-16T20:09:53.838Z,6.30
2022-11-16T20:12:24.433Z,6.03
2022-11-16T20:14:57.288Z,6.05
2022-11-16T20:17:27.495Z,6.30
2022-11-16T20:20:01.649Z,5.40
2022-11-16T20:22:32.940Z,5.60
2022-11-16T20:25:03.426Z,6.22
2022-11-16T20:27:34.393Z,5.88
2022-11-16T20:30:09.917Z,6.05
2022-11-16T20:32:40.714Z,6.15
2022-11-16T20:35:13.690Z,6.70
2022-11-16T20:37:47.114Z,7.60
2022-11-16T20:40:20.765Z,6.57
2022-11-16T20:42:51.882Z,6.97
2022-11-16T20:45:23.353Z,6.65
2022-11-16T20:47:53.827Z,7.03
2022-11-16T20:50:24.515Z,6.22
2022-11-16T20:52:58.756Z,6.55
2022-11-16T20:55:29.224Z,6.57
2022-11-16T20:57:59.769Z,6.47
2022-11-16T21:00:30.480Z,7.18
2022-11-16T21:03:01.532Z,7.20
2022-11-16T21:05:32.427Z,6.72
2022-11-16T21:08:03.006Z,6.85
2022-11-16T21:10:37.232Z,7.22
2022-11-16T21:13:26.693Z,6.75
2022-11-16T21:16:01.678Z,6.80
2022-11-16T21:18:32.545Z,6.85
2022-11-16T21:21:08.503Z,6.03
2022-11-16T21:23:42.984Z,5.53
2022-11-16T21:26:15.650Z,5.82
2022-11-16T21:28:46.446Z,6.40
2022-11-16T21:31:22.579Z,7.20
2022-11-16T21:33:53.432Z,7.50
2022-11-16T21:36:30.961Z,8.57
2022-11-16T21:39:01.617Z,8.60
2022-11-16T21:41:32.708Z,7.82
2022-11-16T21:44:03.833Z,8.95
2022-11-16T21:46:34.345Z,8.80
2022-11-16T21:49:05.526Z,8.73
2022-11-16T21:51:35.979Z,8.32
2022-11-16T21:54:06.390Z,8.75
2022-11-16T21:56:37.175Z,8.45
2022-11-16T21:59:08.243Z,8.93
2022-11-16T22:01:59.063Z,9.18
2022-11-16T22:04:48.146Z,9.25
2022-11-16T22:07:34.654Z,8.93
2022-11-16T22:10:12.872Z,9.18
2022-11-16T22:12:43.866Z,10.48
2022-11-16T22:15:14.619Z,10.48
2022-11-16T22:17:45.855Z,10.38
2022-11-16T22:20:17.123Z,10.25
2022-11-16T22:22:48.510Z,11.68
2022-11-16T22:25:19.529Z,12.40
2022-11-16T22:28:19.132Z,12.70
2022-11-16T22:30:40.776Z,11.57
2022-11-16T22:33:11.242Z,12.95
2022-11-16T22:35:42.922Z,14.75
2022-11-16T22:38:14.601Z,17.77
2022-11-16T22:40:53.751Z,16.55
2022-11-16T22:43:29.595Z,18.13
2022-11-16T22:46:01.636Z,17.30
2022-11-16T22:48:38.180Z,15.55
2022-11-16T22:51:26.782Z,15.10
2022-11-16T22:54:08.123Z,14.82
2022-11-16T22:56:39.176Z,12.77
2022-11-16T22:59:10.771Z,13.60
2022-11-16T23:01:41.477Z,12.65
2022-11-16T23:04:11.959Z,11.10
2022-11-16T23:06:42.939Z,11.73
2022-11-16T23:09:14.015Z,10.65
2022-11-16T23:12:03.469Z,11.05
2022-11-16T23:14:52.596Z,11.48
2022-11-16T23:17:23.593Z,13.07
2022-11-16T23:20:17.294Z,14.35
2022-11-16T23:23:07.826Z,13.25
2022-11-16T23:25:57.069Z,12.75
2022-11-16T23:28:27.622Z,10.38
2022-11-16T23:30:57.990Z,9.55
2022-11-16T23:33:46.605Z,9.73
2022-11-16T23:36:17.331Z,9.98
2022-11-16T23:38:47.878Z,11.38
2022-11-16T23:41:36.961Z,12.25
2022-11-16T23:44:07.766Z,10.73
2022-11-16T23:46:38.671Z,8.75
2022-11-16T23:49:09.856Z,10.27
2022-11-16T23:51:40.937Z,10.13
2022-11-16T23:54:11.662Z,9.40
2022-11-16T23:56:42.216Z,8.52
2022-11-16T23:59:21.964Z,8.15
